Time;durP1;ratioP1;P1;durP2;ratioP2;P2;SDS_P1;SDS_P2;PMS_P1;PMS_P2;Temp;Humidity;BMP_temperature;BMP_pressure;BME280_temperature;BME280_humidity;BME280_pressure;Samples;Min_cycle;Max_cycle;Signal;HPM_P1;HPM_P2
2022/01/31 00:01:52;;;;;;;8.50;3.77;;;;;;;2.55;91.65;100551.05;1845068;78;21055;-61
2022/01/31 00:04:21;;;;;;;10.90;4.45;;;;;;;2.60;91.57;100531.08;1853219;77;21086;-60
2022/01/31 00:06:49;;;;;;;11.10;4.90;;;;;;;2.66;91.50;100534.05;1854704;77;21059;-63
2022/01/31 00:09:18;;;;;;;7.67;3.58;;;;;;;2.73;91.35;100537.44;1847894;77;21120;-63
2022/01/31 00:11:55;;;;;;;6.75;3.87;;;;;;;2.79;91.25;100539.99;1846840;77;21442;-63
2022/01/31 00:19:56;;;;;;;4.35;2.85;;;;;;;2.85;91.31;100534.72;1822411;79;21551;-59
2022/01/31 00:22:25;;;;;;;5.35;3.47;;;;;;;2.90;91.32;100542.89;1822823;79;21156;-62
2022/01/31 00:24:56;;;;;;;8.35;5.72;;;;;;;2.95;91.18;100523.77;1822723;79;21521;-63
2022/01/31 00:27:27;;;;;;;4.97;2.37;;;;;;;2.97;90.90;100542.40;1823174;78;21042;-61
2022/01/31 00:29:56;;;;;;;4.53;2.95;;;;;;;2.99;90.97;100535.44;1826030;78;21128;-61
2022/01/31 00:32:27;;;;;;;4.53;2.72;;;;;;;3.00;91.02;100530.64;1826179;78;21214;-61
2022/01/31 00:34:57;;;;;;;4.75;2.65;;;;;;;3.02;90.94;100540.58;1826246;78;21074;-60
2022/01/31 00:37:27;;;;;;;4.92;2.52;;;;;;;3.02;90.95;100541.88;1826238;78;21191;-60
2022/01/31 00:39:56;;;;;;;5.10;2.60;;;;;;;2.94;90.79;100548.07;1826257;78;21457;-60
2022/01/31 00:42:26;;;;;;;6.90;3.20;;;;;;;2.83;90.92;100533.88;1826191;78;21073;-62
2022/01/31 00:45:07;;;;;;;6.25;2.62;;;;;;;2.72;91.05;100517.08;1826209;78;21135;-60
2022/01/31 00:47:30;;;;;;;4.40;2.47;;;;;;;2.64;91.25;100508.06;1824193;78;21173;-59
2022/01/31 00:50:11;;;;;;;7.72;3.47;;;;;;;2.61;91.46;100497.69;1822759;78;21126;-59
2022/01/31 00:52:42;;;;;;;7.05;3.55;;;;;;;2.62;91.59;100499.42;1822504;79;21581;-63
2022/01/31 00:55:13;;;;;;;8.38;3.95;;;;;;;2.62;91.71;100489.03;1805625;79;21836;-62
2022/01/31 00:57:41;;;;;;;6.28;3.50;;;;;;;2.66;91.96;100484.66;1805940;79;21117;-62
2022/01/31 01:00:12;;;;;;;8.85;3.62;;;;;;;2.70;92.07;100485.89;1805951;79;21465;-62
2022/01/31 01:02:41;;;;;;;8.43;4.00;;;;;;;2.73;92.04;100475.03;1806001;79;21077;-62
2022/01/31 01:05:11;;;;;;;6.55;3.67;;;;;;;2.75;91.97;100484.56;1812802;79;21494;-62
2022/01/31 01:07:40;;;;;;;6.40;2.90;;;;;;;2.72;91.84;100477.23;1816376;79;21091;-62
2022/01/31 01:10:09;;;;;;;10.50;4.75;;;;;;;2.74;91.98;100468.97;1816513;79;21095;-62
2022/01/31 01:12:38;;;;;;;10.45;4.08;;;;;;;2.75;91.87;100465.47;1816566;79;21112;-62
2022/01/31 01:15:07;;;;;;;8.75;4.15;;;;;;;2.76;91.95;100452.91;1818929;78;21050;-67
2022/01/31 01:17:36;;;;;;;11.63;4.08;;;;;;;2.79;92.05;100456.34;1809711;78;21050;-70
2022/01/31 01:20:06;;;;;;;8.15;3.90;;;;;;;2.84;92.13;100465.37;1808019;78;21085;-68
2022/01/31 01:22:35;;;;;;;6.20;3.00;;;;;;;2.88;92.21;100468.38;1822859;79;21066;-68
2022/01/31 01:25:06;;;;;;;7.50;3.22;;;;;;;2.90;92.22;100465.31;1822690;79;21521;-71
2022/01/31 01:27:34;;;;;;;5.75;3.12;;;;;;;2.92;92.21;100460.10;1822896;78;21040;-70
2022/01/31 01:30:05;;;;;;;6.55;3.17;;;;;;;2.95;92.20;100452.24;1822738;78;21572;-70
2022/01/31 01:32:48;;;;;;;8.20;4.80;;;;;;;3.01;92.34;100465.19;1818149;79;21440;-68
2022/01/31 01:35:07;;;;;;;5.95;3.70;;;;;;;3.07;92.49;100459.91;1804222;79;21062;-69
2022/01/31 01:37:36;;;;;;;15.28;4.17;;;;;;;3.15;92.42;100460.65;1805944;79;21156;-69
2022/01/31 01:40:06;;;;;;;5.10;3.15;;;;;;;3.18;92.34;100455.42;1806015;79;21495;-68
2022/01/31 01:42:35;;;;;;;7.37;3.67;;;;;;;3.18;92.19;100448.06;1805933;79;21088;-68
2022/01/31 01:45:05;;;;;;;6.45;3.40;;;;;;;3.08;91.65;100453.38;1805792;79;21513;-64
2022/01/31 01:47:35;;;;;;;5.62;3.15;;;;;;;3.02;90.81;100441.73;1805278;79;21092;-63
2022/01/31 01:50:06;;;;;;;5.05;2.50;;;;;;;2.98;90.29;100445.27;1805856;79;21089;-63
2022/01/31 01:52:36;;;;;;;5.47;2.72;;;;;;;2.96;89.91;100445.73;1806064;79;21058;-66
2022/01/31 01:55:07;;;;;;;3.77;2.10;;;;;;;2.96;89.61;100444.42;1805877;79;21453;-65
2022/01/31 01:57:36;;;;;;;2.85;1.98;;;;;;;2.95;89.37;100432.31;1805795;79;21086;-65
2022/01/31 02:00:08;;;;;;;7.95;2.95;;;;;;;2.97;89.44;100440.95;1805852;79;21085;-64
2022/01/31 02:02:38;;;;;;;6.00;2.95;;;;;;;2.98;89.65;100429.66;1786458;79;21065;-64
2022/01/31 02:05:09;;;;;;;5.17;2.87;;;;;;;2.99;89.90;100424.89;1805504;79;21154;-65
2022/01/31 02:07:43;;;;;;;5.15;2.52;;;;;;;3.02;89.70;100432.63;1806028;79;21184;-65
2022/01/31 02:10:14;;;;;;;5.03;2.00;;;;;;;3.04;89.85;100442.61;1817903;79;21130;-65
2022/01/31 02:12:49;;;;;;;6.60;3.30;;;;;;;3.06;89.96;100426.53;1820673;78;21059;-65
2022/01/31 02:15:24;;;;;;;7.25;4.97;;;;;;;3.07;89.05;100443.84;1819852;79;21212;-67
2022/01/31 02:17:51;;;;;;;8.13;3.45;;;;;;;3.14;88.88;100434.68;1792931;78;21083;-66
2022/01/31 02:20:21;;;;;;;5.45;2.70;;;;;;;3.18;89.28;100423.34;1833626;78;21509;-67
2022/01/31 02:22:50;;;;;;;5.92;3.12;;;;;;;3.19;89.40;100422.45;1840493;78;21550;-64
2022/01/31 02:25:23;;;;;;;;;;;;;;;3.21;89.53;100421.56;1836674;77;21551;-64
2022/01/31 02:27:53;;;;;;;6.10;2.37;;;;;;;3.22;89.03;100422.41;1828397;78;20128;-64
2022/01/31 02:30:22;;;;;;;6.10;3.00;;;;;;;3.23;89.45;100421.09;1840508;78;21686;-64
2022/01/31 02:32:52;;;;;;;7.75;3.58;;;;;;;3.22;89.65;100419.81;1840533;78;21141;-65
2022/01/31 02:35:21;;;;;;;6.65;3.17;;;;;;;3.23;89.70;100416.34;1840609;78;21572;-65
2022/01/31 02:37:50;;;;;;;7.00;2.33;;;;;;;3.23;89.76;100407.23;1840638;78;21161;-60
2022/01/31 02:40:20;;;;;;;5.12;2.87;;;;;;;3.25;89.90;100408.92;1837086;78;21094;-59
2022/01/31 02:42:53;;;;;;;6.05;3.58;;;;;;;3.28;89.80;100409.30;1840717;78;21525;-59
2022/01/31 02:45:24;;;;;;;4.72;3.55;;;;;;;3.32;89.81;100408.41;1840289;78;21098;-60
2022/01/31 02:47:56;;;;;;;5.80;3.05;;;;;;;3.35;89.77;100408.34;1840465;78;21173;-59
2022/01/31 02:50:23;;;;;;;4.35;2.58;;;;;;;3.39;89.70;100398.30;1840450;78;21100;-59
2022/01/31 02:53:23;;;;;;;6.80;2.98;;;;;;;3.41;89.73;100394.37;1840563;78;21493;-59
2022/01/31 02:55:23;;;;;;;5.78;3.22;;;;;;;3.41;89.37;100383.96;1832067;78;21133;-59
2022/01/31 02:57:52;;;;;;;7.37;3.50;;;;;;;3.41;89.84;100403.48;1840552;78;21521;-61
2022/01/31 03:00:21;;;;;;;6.62;4.12;;;;;;;3.42;89.68;100401.31;1840453;78;21474;-60
2022/01/31 03:02:51;;;;;;;5.85;3.33;;;;;;;3.44;89.35;100402.14;1854909;77;21215;-59
2022/01/31 03:05:20;;;;;;;6.17;3.70;;;;;;;3.48;89.25;100402.06;1860861;77;21046;-59
2022/01/31 03:07:49;;;;;;;10.88;4.25;;;;;;;3.51;89.01;100402.92;1860771;77;21445;-59
2022/01/31 03:10:18;;;;;;;5.80;3.45;;;;;;;3.52;89.23;100390.30;1859461;77;21070;-59
2022/01/31 03:12:47;;;;;;;6.17;4.05;;;;;;;3.52;89.12;100405.92;1858848;77;22196;-58
2022/01/31 03:15:15;;;;;;;6.85;3.47;;;;;;;3.54;88.48;100410.66;1858831;77;21492;-59
2022/01/31 03:18:05;;;;;;;6.65;4.20;;;;;;;3.55;88.90;100404.59;1855924;77;21062;-59
2022/01/31 03:20:34;;;;;;;7.85;3.27;;;;;;;3.51;89.11;100395.11;1856145;77;21062;-59
2022/01/31 03:23:03;;;;;;;7.17;3.37;;;;;;;3.47;88.96;100391.70;1856919;77;21144;-60
2022/01/31 03:25:33;;;;;;;6.37;3.25;;;;;;;3.44;89.20;100395.19;1858920;77;21034;-60
2022/01/31 03:28:03;;;;;;;7.33;3.40;;;;;;;3.41;89.21;100400.46;1859078;77;21035;-59
2022/01/31 03:30:31;;;;;;;7.03;3.25;;;;;;;3.39;89.45;100391.78;1858888;77;21473;-59
2022/01/31 03:35:50;;;;;;;3.95;1.92;;;;;;;3.36;89.37;100386.65;1855196;77;21584;-60
2022/01/31 03:38:19;;;;;;;9.30;3.80;;;;;;;3.34;89.50;100379.31;1855367;77;21030;-63
2022/01/31 03:40:48;;;;;;;6.75;3.58;;;;;;;3.35;89.56;100385.36;1855234;77;21070;-64
2022/01/31 03:43:17;;;;;;;7.58;3.30;;;;;;;3.36;89.66;100391.85;1855245;77;21077;-59
2022/01/31 03:45:45;;;;;;;6.87;3.33;;;;;;;3.40;89.62;100393.52;1855196;77;21528;-62
2022/01/31 03:48:19;;;;;;;7.58;4.55;;;;;;;3.44;89.74;100384.77;1854751;77;21533;-61
2022/01/31 03:50:48;;;;;;;10.78;4.62;;;;;;;3.47;89.62;100372.17;1855304;77;21450;-61
2022/01/31 03:53:17;;;;;;;6.92;4.37;;;;;;;3.47;89.21;100378.23;1855379;77;21473;-62
2022/01/31 03:55:46;;;;;;;8.30;4.37;;;;;;;3.50;89.54;100403.79;1855219;77;21473;-62
2022/01/31 03:58:15;;;;;;;9.10;4.95;;;;;;;3.53;89.60;100395.49;1855414;77;21552;-63
2022/01/31 04:00:51;;;;;;;6.00;3.58;;;;;;;3.54;89.41;100397.65;1854515;77;21089;-61
2022/01/31 04:03:19;;;;;;;9.85;4.95;;;;;;;3.57;89.89;100393.70;1855210;77;21123;-60
2022/01/31 04:05:47;;;;;;;6.62;3.92;;;;;;;3.60;89.87;100385.41;1855325;77;21015;-63
2022/01/31 04:08:15;;;;;;;7.45;4.30;;;;;;;3.64;89.63;100391.42;1855241;77;21074;-63
2022/01/31 04:10:43;;;;;;;10.28;4.78;;;;;;;3.63;89.69;100387.97;1855127;77;21051;-62
2022/01/31 04:13:16;;;;;;;10.38;5.87;;;;;;;3.65;89.33;100377.50;1855089;77;21033;-63
2022/01/31 04:15:40;;;;;;;6.95;3.15;;;;;;;3.65;89.04;100369.27;1854572;77;21489;-63
2022/01/31 04:18:08;;;;;;;7.50;4.92;;;;;;;3.66;89.42;100374.88;1855418;77;21062;-62
2022/01/31 04:20:36;;;;;;;10.55;6.33;;;;;;;3.65;89.31;100367.09;1855135;77;21037;-62
2022/01/31 04:23:14;;;;;;;10.45;5.28;;;;;;;3.70;89.38;100365.73;1855384;77;21074;-65
2022/01/31 04:28:23;;;;;;;13.25;5.87;;;;;;;3.82;89.18;100359.02;1855578;77;21082;-66
2022/01/31 04:30:57;;;;;;;9.48;5.62;;;;;;;3.83;89.25;100365.92;1853833;77;21050;-65
2022/01/31 04:33:20;;;;;;;10.20;5.45;;;;;;;3.84;89.20;100356.79;1853604;77;21547;-65
2022/01/31 04:35:49;;;;;;;11.13;5.53;;;;;;;3.90;88.80;100356.27;1871264;76;21062;-61
2022/01/31 04:38:17;;;;;;;9.95;4.92;;;;;;;3.92;88.67;100357.10;1875345;76;21054;-62
2022/01/31 04:40:45;;;;;;;10.45;5.42;;;;;;;3.93;88.92;100354.89;1875417;76;21121;-62
2022/01/31 04:43:13;;;;;;;13.13;5.80;;;;;;;3.91;89.06;100347.14;1875693;76;21099;-59
2022/01/31 04:45:47;;;;;;;9.93;5.85;;;;;;;3.91;89.12;100367.09;1875386;76;21116;-69
2022/01/31 04:48:11;;;;;;;11.80;3.87;;;;;;;3.93;88.92;100352.29;1874908;76;21042;-64
2022/01/31 04:50:38;;;;;;;10.08;5.58;;;;;;;3.96;89.02;100361.36;1875330;76;21053;-65
2022/01/31 04:53:06;;;;;;;7.10;3.67;;;;;;;3.95;88.65;100363.56;1875445;76;21041;-64
2022/01/31 04:55:35;;;;;;;8.35;4.47;;;;;;;3.95;88.50;100357.91;1875331;76;21181;-64
2022/01/31 04:58:03;;;;;;;4.90;3.00;;;;;;;3.96;88.46;100358.76;1875445;76;21003;-61
2022/01/31 05:00:31;;;;;;;9.55;4.17;;;;;;;3.97;88.57;100341.80;1875467;76;21103;-62
2022/01/31 05:02:59;;;;;;;7.47;3.92;;;;;;;3.99;88.48;100361.32;1875662;76;21010;-62
2022/01/31 05:05:28;;;;;;;10.23;4.60;;;;;;;4.01;88.42;100354.33;1875457;76;21112;-68
2022/01/31 05:07:56;;;;;;;7.40;4.92;;;;;;;4.01;88.65;100330.43;1875419;76;21041;-62
2022/01/31 05:10:24;;;;;;;7.47;3.90;;;;;;;4.07;88.53;100343.78;1859313;76;21050;-63
2022/01/31 05:12:52;;;;;;;5.78;3.27;;;;;;;4.06;87.82;100348.59;1855293;77;21494;-67
2022/01/31 05:15:19;;;;;;;9.13;4.25;;;;;;;4.06;87.85;100376.81;1855257;77;21023;-67
2022/01/31 05:17:47;;;;;;;6.20;3.80;;;;;;;4.05;87.88;100375.08;1855316;77;21423;-65
2022/01/31 05:20:15;;;;;;;6.72;3.22;;;;;;;4.07;87.38;100381.56;1855261;77;21011;-66
2022/01/31 05:22:43;;;;;;;4.78;3.05;;;;;;;4.17;87.14;100361.40;1855230;77;21038;-65
2022/01/31 05:25:11;;;;;;;3.70;2.52;;;;;;;4.22;86.98;100366.09;1855195;77;21054;-67
2022/01/31 05:27:39;;;;;;;4.50;2.50;;;;;;;4.28;86.76;100366.00;1855172;77;21092;-65
2022/01/31 05:30:08;;;;;;;7.33;2.50;;;;;;;4.33;86.54;100373.70;1855267;77;21022;-63
2022/01/31 05:32:36;;;;;;;7.57;2.93;;;;;;;4.38;86.42;100394.04;1855155;77;21066;-62
2022/01/31 05:35:05;;;;;;;3.85;1.98;;;;;;;4.40;86.19;100399.63;1855041;77;21102;-61
2022/01/31 05:37:34;;;;;;;6.83;3.55;;;;;;;4.43;86.32;100410.45;1855187;77;21074;-62
2022/01/31 05:40:04;;;;;;;4.10;3.27;;;;;;;4.44;86.64;100410.44;1855140;77;21573;-61
2022/01/31 05:42:32;;;;;;;5.85;2.77;;;;;;;4.45;85.76;100429.53;1853978;77;21067;-61
2022/01/31 05:45:00;;;;;;;5.95;3.27;;;;;;;4.50;85.69;100432.92;1855070;77;21096;-62
2022/01/31 05:47:28;;;;;;;6.92;3.40;;;;;;;4.56;86.76;100440.61;1855379;77;21496;-61
2022/01/31 05:49:56;;;;;;;6.10;2.70;;;;;;;4.58;85.82;100440.14;1855278;77;21047;-62
2022/01/31 05:52:23;;;;;;;5.42;3.12;;;;;;;4.62;86.74;100462.66;1855205;77;21118;-62
2022/01/31 05:54:51;;;;;;;9.58;5.83;;;;;;;4.63;87.28;100457.02;1855234;77;21598;-62
2022/01/31 05:57:19;;;;;;;7.42;3.45;;;;;;;4.58;87.99;100474.04;1855426;77;21476;-63
2022/01/31 05:59:47;;;;;;;5.10;2.42;;;;;;;4.49;88.36;100475.52;1855199;77;21063;-62
2022/01/31 06:02:15;;;;;;;2.67;1.95;;;;;;;4.39;88.60;100460.91;1855519;77;21087;-63
2022/01/31 06:04:44;;;;;;;4.15;1.90;;;;;;;4.31;88.44;100454.98;1855464;77;21101;-64
2022/01/31 06:07:12;;;;;;;1.55;1.15;;;;;;;4.19;88.16;100450.41;1855288;77;21487;-69
2022/01/31 06:09:41;;;;;;;3.27;1.70;;;;;;;4.17;87.90;100446.09;1838010;77;21034;-66
2022/01/31 06:12:12;;;;;;;2.37;1.52;;;;;;;4.21;88.08;100450.39;1821249;79;21066;-66
2022/01/31 06:14:40;;;;;;;5.17;2.05;;;;;;;4.22;88.09;100460.80;1821382;79;21045;-66
2022/01/31 06:17:09;;;;;;;6.58;2.75;;;;;;;4.24;88.32;100453.80;1821317;79;21089;-63
2022/01/31 06:19:38;;;;;;;9.88;2.08;;;;;;;4.26;88.52;100472.03;1821250;79;21543;-65
2022/01/31 06:22:07;;;;;;;3.45;1.87;;;;;;;4.27;88.54;100479.39;1821321;79;21500;-65
2022/01/31 06:24:36;;;;;;;6.33;2.58;;;;;;;4.27;88.23;100478.94;1821175;79;21050;-65
2022/01/31 06:27:09;;;;;;;3.35;2.27;;;;;;;4.23;88.06;100491.16;1820351;78;21081;-67
2022/01/31 06:29:38;;;;;;;3.33;2.20;;;;;;;4.20;87.75;100500.78;1821411;78;21116;-63
2022/01/31 06:32:11;;;;;;;4.53;2.85;;;;;;;4.15;88.20;100495.66;1820978;78;21508;-68
2022/01/31 06:34:40;;;;;;;3.08;2.30;;;;;;;4.08;88.25;100503.58;1821259;79;21070;-68
2022/01/31 06:37:08;;;;;;;5.33;2.25;;;;;;;4.02;88.38;100503.23;1840983;76;21056;-65
2022/01/31 06:39:38;;;;;;;4.60;2.55;;;;;;;3.97;88.56;100503.77;1845448;76;21044;-65
2022/01/31 06:42:07;;;;;;;2.17;1.70;;;;;;;3.94;88.70;100503.81;1845514;78;21503;-64
2022/01/31 06:44:37;;;;;;;3.80;2.20;;;;;;;3.93;88.60;100512.08;1845540;78;21185;-64
2022/01/31 06:47:06;;;;;;;3.08;1.90;;;;;;;3.93;88.91;100512.08;1845649;78;21522;-64
2022/01/31 06:49:35;;;;;;;4.15;1.55;;;;;;;3.92;88.94;100516.00;1845333;78;21063;-66
2022/01/31 06:52:05;;;;;;;2.62;1.10;;;;;;;3.89;88.71;100497.35;1845495;78;21031;-63
2022/01/31 06:54:33;;;;;;;5.03;2.30;;;;;;;3.85;88.50;100506.98;1845421;78;21113;-63
2022/01/31 06:57:04;;;;;;;2.10;1.72;;;;;;;3.82;88.84;100516.14;1845625;78;21047;-58
2022/01/31 06:59:33;;;;;;;1.70;1.30;;;;;;;3.76;88.69;100517.54;1845546;78;21063;-60
2022/01/31 07:02:02;;;;;;;2.45;1.82;;;;;;;3.71;89.08;100521.06;1845519;78;21520;-58
2022/01/31 07:04:31;;;;;;;5.80;2.27;;;;;;;3.63;89.22;100520.77;1853312;76;21116;-58
2022/01/31 07:07:00;;;;;;;3.17;1.50;;;;;;;3.56;89.01;100549.06;1847390;77;21091;-58
2022/01/31 07:09:29;;;;;;;1.82;1.10;;;;;;;3.50;89.18;100540.01;1845427;77;21501;-59
2022/01/31 07:12:00;;;;;;;1.47;1.22;;;;;;;3.47;89.42;100526.61;1845497;77;21049;-58
2022/01/31 07:14:31;;;;;;;3.08;1.90;;;;;;;3.55;89.67;100507.42;1845392;78;21044;-63
2022/01/31 07:17:05;;;;;;;1.75;1.30;;;;;;;3.65;89.70;100521.59;1845314;78;21079;-61
2022/01/31 07:19:36;;;;;;;2.50;1.30;;;;;;;3.71;89.56;100533.67;1845738;77;21051;-61
2022/01/31 07:22:08;;;;;;;2.90;1.12;;;;;;;3.74;89.26;100517.12;1847405;77;21084;-61
2022/01/31 07:27:08;;;;;;;1.60;1.30;;;;;;;3.67;89.45;100519.83;1845423;78;21591;-62
2022/01/31 07:29:37;;;;;;;2.17;0.70;;;;;;;3.57;89.34;100516.06;1845524;78;21036;-60
2022/01/31 07:32:10;;;;;;;1.47;1.07;;;;;;;3.48;89.28;100536.12;1845494;78;21075;-61
2022/01/31 07:34:43;;;;;;;2.20;1.00;;;;;;;3.40;89.25;100530.61;1845686;78;21129;-62
2022/01/31 07:37:12;;;;;;;1.62;0.90;;;;;;;3.36;89.48;100524.59;1856643;77;21915;-60
2022/01/31 07:39:43;;;;;;;1.05;0.80;;;;;;;3.36;89.44;100528.94;1869828;77;21050;-60
2022/01/31 07:42:11;;;;;;;1.02;0.93;;;;;;;3.33;89.13;100545.88;1869924;77;21054;-61
2022/01/31 07:44:42;;;;;;;2.40;1.02;;;;;;;3.25;89.25;100535.13;1868997;76;21073;-60
2022/01/31 07:47:10;;;;;;;1.30;1.10;;;;;;;3.24;89.28;100539.89;1869946;77;21591;-59
2022/01/31 07:49:39;;;;;;;3.58;1.32;;;;;;;3.21;89.40;100541.25;1870000;77;21553;-59
2022/01/31 07:52:08;;;;;;;3.65;1.45;;;;;;;3.16;89.42;100514.42;1869859;77;21045;-60
2022/01/31 07:54:37;;;;;;;1.17;0.85;;;;;;;3.14;89.67;100521.84;1870068;77;21121;-59
2022/01/31 07:57:06;;;;;;;1.32;0.85;;;;;;;3.11;89.86;100517.52;1870053;77;21143;-59
2022/01/31 07:59:34;;;;;;;1.67;1.15;;;;;;;3.16;90.03;100526.58;1869983;77;21124;-58
2022/01/31 08:02:03;;;;;;;2.45;1.50;;;;;;;3.21;90.17;100527.36;1869953;77;21019;-59
2022/01/31 08:04:32;;;;;;;4.12;1.25;;;;;;;3.25;90.32;100522.56;1870041;77;21046;-60
2022/01/31 08:07:00;;;;;;;2.42;1.62;;;;;;;3.37;90.35;100521.09;1869919;77;21078;-59
2022/01/31 08:09:29;;;;;;;1.82;1.22;;;;;;;3.48;90.11;100532.66;1869925;77;21118;-59
2022/01/31 08:11:58;;;;;;;1.77;1.30;;;;;;;3.53;89.73;100540.42;1869979;77;21518;-59
2022/01/31 08:14:29;;;;;;;1.82;1.32;;;;;;;3.56;89.79;100546.88;1869954;77;21187;-59
2022/01/31 08:16:57;;;;;;;2.05;1.25;;;;;;;3.58;89.91;100565.94;1869636;77;21175;-59
2022/01/31 08:19:27;;;;;;;3.70;2.27;;;;;;;3.59;89.90;100571.58;1869976;77;21493;-62
2022/01/31 08:21:56;;;;;;;5.15;1.60;;;;;;;3.58;89.83;100545.99;1869954;77;21083;-61
2022/01/31 08:24:25;;;;;;;4.53;1.95;;;;;;;3.61;90.05;100569.81;1869981;77;21172;-62
2022/01/31 08:26:54;;;;;;;3.75;2.17;;;;;;;3.63;90.20;100562.84;1869992;77;21111;-61
2022/01/31 08:29:31;;;;;;;6.53;2.65;;;;;;;3.66;90.33;100544.58;1870147;77;21542;-61
2022/01/31 08:31:57;;;;;;;19.55;7.45;;;;;;;3.77;90.58;100529.66;1869334;77;21061;-61
2022/01/31 08:36:56;;;;;;;9.65;3.52;;;;;;;4.00;90.57;100521.94;1809726;77;21057;-61
2022/01/31 08:39:25;;;;;;;1.92;1.22;;;;;;;4.03;90.43;100516.69;1867711;76;21497;-60
2022/01/31 08:41:54;;;;;;;2.10;0.93;;;;;;;4.03;90.37;100520.15;1866331;77;21168;-61
2022/01/31 08:44:23;;;;;;;3.00;1.15;;;;;;;3.97;90.03;100515.05;1866468;77;21549;-59
2022/01/31 08:46:51;;;;;;;2.83;1.12;;;;;;;3.91;89.90;100522.08;1862241;77;21541;-59
2022/01/31 08:49:20;;;;;;;3.30;1.32;;;;;;;3.86;89.95;100507.39;1861742;77;21048;-59
2022/01/31 08:51:49;;;;;;;2.47;1.82;;;;;;;3.90;90.10;100507.35;1861824;77;21498;-60
2022/01/31 08:54:20;;;;;;;3.62;1.98;;;;;;;4.01;90.25;100501.08;1861997;77;21545;-59
2022/01/31 08:56:49;;;;;;;3.40;1.40;;;;;;;4.26;90.42;100503.30;1861773;77;21047;-59
2022/01/31 08:59:22;;;;;;;3.40;2.25;;;;;;;4.49;90.17;100492.46;1866680;77;21056;-60
2022/01/31 09:02:03;;;;;;;2.15;1.40;;;;;;;4.61;90.17;100500.07;1866460;77;21067;-61
2022/01/31 09:04:34;;;;;;;2.50;2.05;;;;;;;4.68;90.01;100493.43;1860567;77;21183;-59
2022/01/31 09:07:03;;;;;;;5.25;2.83;;;;;;;4.69;89.94;100484.28;1867966;77;21058;-61
2022/01/31 09:09:32;;;;;;;2.37;1.87;;;;;;;4.74;90.03;100480.26;1866481;77;21461;-65
2022/01/31 09:12:02;;;;;;;3.75;1.42;;;;;;;4.77;90.11;100484.13;1866652;77;21050;-63
2022/01/31 09:14:31;;;;;;;3.33;1.37;;;;;;;4.75;90.20;100498.95;1867338;77;21184;-62
2022/01/31 09:16:59;;;;;;;6.33;2.50;;;;;;;4.66;90.04;100505.19;1865291;77;21061;-63
2022/01/31 09:19:28;;;;;;;4.80;2.95;;;;;;;4.57;90.01;100507.52;1866087;77;21535;-64
2022/01/31 09:21:57;;;;;;;3.72;2.17;;;;;;;4.53;89.95;100505.85;1868259;77;21551;-62
2022/01/31 09:24:25;;;;;;;4.55;2.83;;;;;;;4.60;89.67;100506.16;1880258;76;21543;-63
2022/01/31 09:26:54;;;;;;;11.83;2.40;;;;;;;4.70;89.71;100509.45;1891795;76;21002;-63
2022/01/31 09:29:23;;;;;;;6.83;3.80;;;;;;;4.75;89.41;100494.58;1892751;76;21128;-65
2022/01/31 09:31:51;;;;;;;4.72;3.08;;;;;;;4.72;89.13;100490.75;1870179;76;21582;-63
2022/01/31 09:34:21;;;;;;;7.42;2.50;;;;;;;4.72;88.75;100486.84;1871335;76;21101;-61
2022/01/31 09:36:50;;;;;;;3.12;2.17;;;;;;;4.81;88.52;100471.43;1870027;77;21061;-64
2022/01/31 09:39:19;;;;;;;4.03;1.90;;;;;;;4.98;88.14;100485.02;1869993;77;21119;-62
2022/01/31 09:41:53;;;;;;;4.17;2.08;;;;;;;5.19;87.89;100481.55;1869925;77;21580;-62
2022/01/31 09:49:23;;;;;;;3.87;2.85;;;;;;;5.92;87.47;100471.20;1869897;77;21124;-62
2022/01/31 09:51:52;;;;;;;3.98;1.95;;;;;;;6.51;85.37;100466.70;1870036;77;21127;-61
2022/01/31 09:54:24;;;;;;;3.98;2.10;;;;;;;6.78;84.07;100462.91;1870972;76;21120;-62
2022/01/31 09:56:53;;;;;;;2.80;1.95;;;;;;;7.09;82.52;100464.66;1866551;77;21128;-61
2022/01/31 09:59:22;;;;;;;4.42;1.75;;;;;;;7.03;82.84;100462.23;1872039;77;21088;-61
2022/01/31 10:01:55;;;;;;;6.85;1.77;;;;;;;6.79;84.67;100459.41;1866671;77;21050;-61
2022/01/31 10:04:30;;;;;;;2.25;1.62;;;;;;;6.46;84.84;100464.64;1867117;76;21097;-63
2022/01/31 10:06:59;;;;;;;2.97;1.87;;;;;;;6.15;85.17;100462.81;1835768;78;21124;-61
2022/01/31 10:09:30;;;;;;;3.37;1.87;;;;;;;5.94;85.57;100471.17;1835384;78;21460;-63
2022/01/31 10:17:46;;;;;;;1.72;1.32;;;;;;;5.99;85.26;100470.20;1835350;78;21074;-63
2022/01/31 10:20:32;;;;;;;3.60;2.47;;;;;;;7.00;83.13;100467.55;1835280;78;21516;-65
2022/01/31 10:23:08;;;;;;;2.62;1.80;;;;;;;8.89;77.88;100464.93;1850555;75;21035;-62
2022/01/31 10:25:37;;;;;;;5.08;2.87;;;;;;;10.53;74.23;100455.84;1891281;76;21058;-62
2022/01/31 10:28:20;;;;;;;3.27;2.42;;;;;;;11.43;71.91;100454.00;1893610;76;21039;-66
2022/01/31 10:30:53;;;;;;;3.62;2.67;;;;;;;12.28;71.03;100447.67;1891705;76;21027;-65
2022/01/31 10:33:25;;;;;;;4.15;2.55;;;;;;;12.35;69.92;100448.19;1893499;76;21011;-65
2022/01/31 10:35:52;;;;;;;3.27;2.22;;;;;;;11.93;70.72;100450.28;1893265;76;21152;-60
2022/01/31 10:38:31;;;;;;;10.23;2.80;;;;;;;11.92;70.53;100444.61;1893459;76;21229;-60
2022/01/31 10:53:11;;;;;;;4.37;1.60;;;;;;;10.09;73.69;100458.55;1869991;77;21033;-61
2022/01/31 10:55:40;;;;;;;3.15;1.72;;;;;;;9.37;76.29;100454.39;1869921;77;21472;-64
2022/01/31 10:58:13;;;;;;;3.98;2.10;;;;;;;8.71;77.92;100458.19;1870026;77;21070;-61
2022/01/31 11:00:42;;;;;;;3.27;1.82;;;;;;;8.05;78.92;100451.63;1871686;76;21038;-61
2022/01/31 11:03:32;;;;;;;2.75;1.70;;;;;;;7.58;79.88;100461.89;1870059;77;21132;-61
2022/01/31 11:06:09;;;;;;;5.78;2.62;;;;;;;7.31;80.44;100447.41;1869790;76;21140;-65
2022/01/31 11:08:39;;;;;;;4.58;2.50;;;;;;;7.55;79.85;100452.80;1870015;77;21113;-62
2022/01/31 11:11:08;;;;;;;4.70;2.12;;;;;;;7.69;79.96;100431.39;1878779;76;21497;-61
2022/01/31 11:13:38;;;;;;;4.05;1.70;;;;;;;7.80;78.80;100437.17;1893674;76;21489;-62
2022/01/31 11:16:07;;;;;;;2.52;1.80;;;;;;;7.94;79.99;100449.81;1893764;76;21117;-61
2022/01/31 11:18:37;;;;;;;2.30;1.40;;;;;;;8.16;80.11;100450.42;1893662;76;21037;-62
2022/01/31 11:21:08;;;;;;;3.45;1.50;;;;;;;8.27;79.51;100440.42;1891841;76;21566;-62
2022/01/31 11:23:41;;;;;;;4.72;1.70;;;;;;;7.97;79.12;100452.34;1893650;76;21104;-62
2022/01/31 11:26:12;;;;;;;7.90;2.67;;;;;;;8.32;78.98;100458.17;1893954;76;21132;-62
2022/01/31 11:28:43;;;;;;;3.95;2.15;;;;;;;8.32;78.98;100458.17;1893615;76;21579;-59
2022/01/31 11:31:12;;;;;;;3.45;1.82;;;;;;;8.97;77.26;100445.42;1892108;76;21509;-59
2022/01/31 11:33:41;;;;;;;3.40;1.72;;;;;;;10.30;72.81;100451.08;1835504;78;21461;-59
2022/01/31 11:36:11;;;;;;;4.53;2.62;;;;;;;10.94;69.55;100446.59;1835470;78;21070;-63
2022/01/31 11:38:43;;;;;;;3.85;1.62;;;;;;;11.10;68.68;100443.66;1835569;78;21034;-62
2022/01/31 11:41:13;;;;;;;3.62;1.22;;;;;;;10.95;68.62;100441.22;1844138;76;21050;-63
2022/01/31 11:43:42;;;;;;;2.20;1.55;;;;;;;10.33;71.42;100441.78;1889792;76;21050;-63
2022/01/31 11:46:11;;;;;;;4.17;1.60;;;;;;;10.82;71.89;100456.72;1889902;76;21042;-63
2022/01/31 11:48:39;;;;;;;3.33;1.72;;;;;;;11.16;70.75;100448.62;1889905;76;21509;-63
2022/01/31 11:51:09;;;;;;;14.38;2.30;;;;;;;11.12;71.83;100456.73;1889875;76;21106;-68
2022/01/31 11:53:39;;;;;;;6.12;2.10;;;;;;;10.11;73.42;100456.27;1888286;76;21039;-67
2022/01/31 11:56:11;;;;;;;4.60;1.85;;;;;;;9.65;72.26;100455.50;1889796;76;21062;-64
2022/01/31 11:58:51;;;;;;;4.10;1.35;;;;;;;9.97;72.33;100468.66;1888710;76;21070;-61
2022/01/31 12:01:22;;;;;;;3.90;1.57;;;;;;;9.69;73.43;100471.55;1875576;76;21034;-58
2022/01/31 12:03:53;;;;;;;3.98;1.35;;;;;;;9.62;73.44;100472.23;1871824;76;21050;-61
2022/01/31 12:06:24;;;;;;;2.10;1.42;;;;;;;8.93;72.52;100478.80;1866308;77;21136;-64
2022/01/31 12:09:08;;;;;;;6.50;1.77;;;;;;;8.27;74.54;100467.96;1842729;78;21169;-59
2022/01/31 12:12:06;;;;;;;2.10;1.65;;;;;;;8.37;75.77;100471.97;1812381;78;21200;-60
2022/01/31 12:14:48;;;;;;;4.03;1.40;;;;;;;9.02;73.45;100485.50;1871756;76;21067;-59
2022/01/31 12:17:33;;;;;;;3.42;1.27;;;;;;;9.35;75.10;100482.50;1855524;77;21522;-60
2022/01/31 12:20:03;;;;;;;4.62;1.65;;;;;;;9.03;73.75;100488.51;1858590;77;21089;-61
2022/01/31 12:22:47;;;;;;;4.85;2.20;;;;;;;8.26;74.63;100485.91;1876126;76;21003;-60
2022/01/31 12:25:27;;;;;;;5.28;1.20;;;;;;;7.72;76.49;100493.73;1844447;76;21120;-62